»·PEaware :: UAE413 YSSY-OMDB

UAE413 :: YSSY-OMDB

FLIGHT INFORMATION

Flight Status: Arrived
Operator:
Emirates
More flights by this operator :: More flights under this callsign
Pilot: Josef V. (384)
Aircraft: BOEING 777-300
(B773)
More flights by this aircraft type
Origin: YSSY Kingsford Smith Intl
Australia
Destination: OMDB Dubai Intl
United Arab Emirates
More flights between these airports :: More routes between these airports
Route: SY H202 RIC UH226 NYN T74 TN A464 SJ G579 VJB Y342 AROSO Y339 GEMAS B466 GUNIP N571 VUSET A454 PASOV B540 BUBIN
File this flight plan on PilotEdge
Remarks: OPR / QANTASVIRTUAL.COM REG / A6-EBA PER / D SEL / AREK NAV RNP4 GPSRNAV
Altitude:
(Current/Filed)
34,000ft
Speed:
(Current/Filed)
450kts
Departed: 03-Sep-14 01:32 PM
Arrived: 04-Sep-14 01:28 AM
Distance/Time
Traveled:
6499nm/11:56
Distance/Time
To Go:
Arrived

Flight Plot

Page will automatically refresh every two minutes.


Map Options




Map Legend


Flown Route
Filed Route
Departure Airport
Arrival Airport
Navaid (VOR, NDB)
Fix

Horizontal Profiles

Position Reports

Time Latitude Longitude Heading Altitude Ground
Speed
03-Sep-14 13:07 -33.934831 151.167647 258 38ft 0kts
03-Sep-14 13:08 -33.934831 151.167647 258 38ft 0kts
03-Sep-14 13:09 -33.934831 151.167647 258 38ft 0kts
03-Sep-14 13:10 -33.934831 151.167647 258 38ft 0kts
03-Sep-14 13:11 -33.934831 151.167647 258 38ft 0kts
03-Sep-14 13:12 -33.934831 151.167646 258 37ft 0kts
03-Sep-14 13:13 -33.934831 151.167646 258 37ft 0kts
03-Sep-14 13:14 -33.934831 151.167646 258 37ft 0kts
03-Sep-14 13:15 -33.934831 151.167646 258 37ft 0kts
03-Sep-14 13:16 -33.934831 151.167646 258 37ft 0kts
03-Sep-14 13:17 -33.934831 151.167646 258 37ft 0kts
03-Sep-14 13:18 -33.934831 151.167646 258 37ft 0kts
03-Sep-14 13:19 -33.934831 151.167646 258 37ft 0kts
03-Sep-14 13:20 -33.934831 151.167646 258 37ft 0kts
03-Sep-14 13:21 -33.934785 151.167918 258 37ft 2kts
03-Sep-14 13:22 -33.934632 151.168826 266 37ft 2kts
03-Sep-14 13:23 -33.934787 151.169108 349 37ft 0kts
03-Sep-14 13:24 -33.934787 151.169108 349 37ft 0kts
03-Sep-14 13:25 -33.934787 151.169108 349 37ft 0kts
03-Sep-14 13:26 -33.934787 151.169108 349 37ft 0kts
03-Sep-14 13:27 -33.933497 151.168919 13 37ft 9kts
03-Sep-14 13:28 -33.930926 151.169193 347 37ft 13kts
03-Sep-14 13:29 -33.929566 151.170983 77 37ft 7kts
03-Sep-14 13:30 -33.930023 151.171776 169 37ft 4kts
03-Sep-14 13:31 -33.958257 151.179095 172 341ft 196kts
03-Sep-14 13:32 -34.019063 151.175577 183 2284ft 255kts
03-Sep-14 13:33 -34.089618 151.196079 168 5330ft 269kts
03-Sep-14 13:34 -34.149666 151.170254 259 7944ft 259kts
03-Sep-14 13:35 -34.113116 151.099209 314 10301ft 281kts
03-Sep-14 13:36 -34.045394 151.032553 318 12098ft 332kts
03-Sep-14 13:37 -33.969018 150.967787 334 14834ft 348kts
03-Sep-14 13:38 -33.880143 150.921884 333 17261ft 360kts
03-Sep-14 13:39 -33.789709 150.875025 334 19136ft 382kts
03-Sep-14 13:40 -33.692023 150.824832 334 21289ft 393kts
03-Sep-14 13:41 -33.595718 150.764375 314 23287ft 395kts
03-Sep-14 13:42 -33.518524 150.669446 313 24843ft 408kts
03-Sep-14 13:43 -33.438049 150.571899 312 26309ft 422kts
03-Sep-14 13:44 -33.355301 150.471374 312 27773ft 431kts
03-Sep-14 13:45 -33.271150 150.369398 312 29235ft 438kts
03-Sep-14 13:46 -33.185160 150.265504 312 30054ft 452kts
03-Sep-14 13:47 -33.093873 150.155411 314 30042ft 485kts
03-Sep-14 13:48 -32.997690 150.040141 314 30003ft 495kts
03-Sep-14 13:49 -32.900591 149.923967 314 30005ft 500kts
03-Sep-14 13:50 -32.803514 149.807502 315 29999ft 497kts
03-Sep-14 13:51 -32.705810 149.691250 315 30005ft 497kts
03-Sep-14 13:52 -32.608004 149.575373 315 30004ft 497kts
03-Sep-14 13:53 -32.510687 149.460455 315 30036ft 493kts
03-Sep-14 13:54 -32.413826 149.346442 315 30041ft 494kts
03-Sep-14 13:55 -32.315964 149.231619 315 30003ft 498kts
03-Sep-14 13:56 -32.234950 149.136845 315 29999ft 498kts
03-Sep-14 13:57 -32.136532 149.022046 315 30000ft 498kts
03-Sep-14 13:58 -32.021626 148.888469 315 29999ft 498kts
03-Sep-14 13:59 -31.939730 148.792882 315 30000ft 498kts
03-Sep-14 14:00 -31.841325 148.679123 315 30020ft 495kts
03-Sep-14 14:01 -31.743513 148.566473 315 30046ft 492kts
03-Sep-14 14:02 -31.645685 148.454141 315 30033ft 493kts
03-Sep-14 14:03 -31.547697 148.342048 315 30007ft 491kts
03-Sep-14 14:04 -31.449946 148.230497 315 29999ft 491kts
03-Sep-14 14:05 -31.351948 148.119013 314 29999ft 493kts
03-Sep-14 14:06 -31.254133 148.008037 315 29999ft 490kts
03-Sep-14 14:07 -31.156128 147.897272 315 29999ft 490kts
03-Sep-14 14:08 -31.058625 147.786697 315 30008ft 491kts
03-Sep-14 14:09 -30.960647 147.676508 315 30031ft 488kts
03-Sep-14 14:10 -30.863310 147.567473 315 30047ft 489kts
03-Sep-14 14:11 -30.764918 147.457530 315 30009ft 491kts
03-Sep-14 14:12 -30.666211 147.347596 315 30012ft 490kts
03-Sep-14 14:13 -30.568013 147.238567 315 30024ft 489kts
03-Sep-14 14:14 -30.469719 147.129719 315 30002ft 491kts
03-Sep-14 14:15 -30.371177 147.020893 316 30000ft 492kts
03-Sep-14 14:16 -30.271929 146.911733 315 29999ft 492kts
03-Sep-14 14:17 -30.172979 146.802414 316 30008ft 491kts
03-Sep-14 14:18 -30.073545 146.693542 316 30002ft 496kts
03-Sep-14 14:19 -29.973282 146.584176 316 30029ft 494kts
03-Sep-14 14:20 -29.873918 146.476069 316 30045ft 493kts
03-Sep-14 14:21 -29.773893 146.367560 316 30009ft 497kts
03-Sep-14 14:22 -29.673330 146.258781 316 29999ft 498kts
03-Sep-14 14:23 -29.572520 146.150050 316 30000ft 498kts
03-Sep-14 14:24 -29.471617 146.041531 316 30000ft 498kts
03-Sep-14 14:25 -29.370361 145.932936 316 30000ft 498kts
03-Sep-14 14:26 -29.270118 145.825193 317 30016ft 496kts
03-Sep-14 14:27 -29.169532 145.717802 317 30040ft 493kts
03-Sep-14 14:28 -29.069492 145.611414 317 30040ft 494kts
03-Sep-14 14:29 -28.968504 145.504323 317 30017ft 496kts
03-Sep-14 14:30 -28.867697 145.397722 317 30067ft 492kts
03-Sep-14 14:31 -28.768165 145.292756 317 30139ft 487kts
03-Sep-14 14:32 -28.668612 145.188055 317 30140ft 487kts
03-Sep-14 14:33 -28.569181 145.083761 317 30140ft 487kts
03-Sep-14 14:34 -28.469433 144.979418 317 30140ft 487kts
03-Sep-14 14:35 -28.369954 144.875499 317 30140ft 487kts
03-Sep-14 14:36 -28.286058 144.787721 317 30140ft 487kts
03-Sep-14 14:37 -28.202399 144.700840 323 30105ft 503kts
03-Sep-14 14:38 -28.097813 144.592543 323 30147ft 525kts
03-Sep-14 14:39 -27.986752 144.477826 322 30154ft 554kts
03-Sep-14 14:40 -27.869911 144.357504 322 30161ft 588kts
03-Sep-14 14:41 -27.746845 144.231109 322 30148ft 598kts
03-Sep-14 14:42 -27.623817 144.105214 322 30155ft 598kts
03-Sep-14 14:43 -27.500635 143.979563 322 30159ft 601kts
03-Sep-14 14:44 -27.378422 143.854923 322 30124ft 599kts
03-Sep-14 14:45 -27.254795 143.729356 322 30130ft 600kts
03-Sep-14 14:46 -27.131185 143.604439 322 30135ft 600kts
03-Sep-14 14:47 -27.007027 143.479361 322 30139ft 600kts
03-Sep-14 14:48 -26.883007 143.354808 322 30144ft 600kts
03-Sep-14 14:49 -26.758759 143.230409 322 30149ft 600kts
03-Sep-14 14:50 -26.634948 143.106824 323 30154ft 600kts
03-Sep-14 14:51 -26.510185 142.982667 323 30159ft 599kts
03-Sep-14 14:52 -26.386543 142.859690 323 30123ft 598kts
03-Sep-14 14:53 -26.261939 142.736162 323 30129ft 599kts
03-Sep-14 14:54 -26.137528 142.613458 323 30134ft 599kts
03-Sep-14 14:55 -26.013024 142.491031 323 30139ft 599kts
03-Sep-14 14:56 -25.889363 142.369790 323 30144ft 599kts
03-Sep-14 14:57 -25.764500 142.247725 323 30149ft 599kts
03-Sep-14 14:58 -25.639592 142.125973 323 30154ft 599kts
03-Sep-14 14:59 -25.514631 142.004522 323 30159ft 599kts
03-Sep-14 15:00 -25.389494 141.883200 323 30132ft 598kts
03-Sep-14 15:01 -25.264951 141.762353 324 30129ft 598kts
03-Sep-14 15:02 -25.139810 141.641754 324 30133ft 598kts
03-Sep-14 15:03 -25.014894 141.521721 324 30138ft 598kts
03-Sep-14 15:04 -24.889258 141.401337 324 30143ft 598kts
03-Sep-14 15:05 -24.764183 141.281822 324 30148ft 598kts
03-Sep-14 15:06 -24.638596 141.162152 324 30153ft 598kts
03-Sep-14 15:07 -24.512650 141.042470 324 30158ft 598kts
03-Sep-14 15:08 -24.387411 140.923780 324 30149ft 598kts
03-Sep-14 15:09 -24.263070 140.805790 324 30128ft 597kts
03-Sep-14 15:10 -24.158532 140.707192 324 30132ft 597kts
03-Sep-14 15:11 -24.032573 140.588734 324 30136ft 597kts
03-Sep-14 15:12 -23.885762 140.451066 324 30142ft 597kts
03-Sep-14 15:13 -23.780495 140.352618 324 30146ft 597kts
03-Sep-14 15:14 -23.655068 140.235598 324 30151ft 597kts
03-Sep-14 15:15 -23.527637 140.117136 323 31201ft 607kts
03-Sep-14 15:16 -23.398715 139.997419 322 32137ft 611kts
03-Sep-14 15:17 -23.269626 139.877802 323 32125ft 610kts
03-Sep-14 15:18 -23.140941 139.758605 323 32130ft 610kts
03-Sep-14 15:19 -23.011813 139.639702 323 32135ft 610kts
03-Sep-14 15:20 -22.882464 139.520912 323 32141ft 610kts
03-Sep-14 15:21 -22.752733 139.402080 323 32146ft 610kts
03-Sep-14 15:22 -22.623106 139.283646 323 32152ft 610kts
03-Sep-14 15:23 -22.493453 139.165492 323 32158ft 610kts
03-Sep-14 15:24 -22.364006 139.047818 323 32144ft 610kts
03-Sep-14 15:25 -22.234275 138.930185 323 32149ft 610kts
03-Sep-14 15:26 -22.104871 138.812725 324 32129ft 610kts
03-Sep-14 15:27 -21.974697 138.695239 324 32134ft 610kts
03-Sep-14 15:28 -21.844951 138.578467 324 32140ft 610kts
03-Sep-14 15:29 -21.714665 138.461497 324 32146ft 610kts
03-Sep-14 15:30 -21.584676 138.345077 324 32151ft 610kts
03-Sep-14 15:31 -21.454566 138.228829 324 32157ft 610kts
03-Sep-14 15:32 -21.324459 138.112859 324 32143ft 610kts
03-Sep-14 15:33 -21.194325 137.997142 324 32148ft 610kts
03-Sep-14 15:34 -21.064268 137.881719 324 32132ft 609kts
03-Sep-14 15:35 -20.933979 137.766033 324 32133ft 609kts
03-Sep-14 15:36 -20.803039 137.650412 324 32139ft 609kts
03-Sep-14 15:37 -20.672448 137.535374 324 32144ft 609kts
03-Sep-14 15:38 -20.542277 137.420969 324 32150ft 609kts
03-Sep-14 15:39 -20.411737 137.306494 324 32134ft 609kts
03-Sep-14 15:40 -20.280978 137.192095 324 32142ft 609kts
03-Sep-14 15:41 -20.150070 137.077818 324 32147ft 609kts
03-Sep-14 15:42 -20.019365 136.963975 324 32153ft 609kts
03-Sep-14 15:43 -19.888327 136.849793 325 32133ft 608kts
03-Sep-14 15:44 -19.758003 136.736680 325 32137ft 609kts
03-Sep-14 15:45 -19.626813 136.623165 325 32143ft 609kts
03-Sep-14 15:46 -19.495512 136.509804 325 32149ft 609kts
03-Sep-14 15:47 -19.365885 136.398124 325 32135ft 608kts
03-Sep-14 15:48 -19.234910 136.285523 325 32140ft 609kts
03-Sep-14 15:49 -19.106854 136.175661 325 32146ft 609kts
03-Sep-14 15:50 -18.975374 136.063095 325 32151ft 609kts
03-Sep-14 15:51 -18.843964 135.950826 325 32157ft 609kts
03-Sep-14 15:52 -18.712768 135.838656 325 32137ft 608kts
03-Sep-14 15:53 -18.581622 135.727012 325 32141ft 608kts
03-Sep-14 15:54 -18.449777 135.615064 325 32147ft 608kts
03-Sep-14 15:55 -18.318388 135.503730 325 32133ft 608kts
03-Sep-14 15:56 -18.187287 135.392860 325 32138ft 608kts
03-Sep-14 15:57 -18.055126 135.281317 325 32144ft 608kts
03-Sep-14 15:58 -17.923502 135.170447 325 32149ft 608kts
03-Sep-14 15:59 -17.791832 135.059755 325 32155ft 608kts
03-Sep-14 16:00 -17.659858 134.949022 325 32160ft 608kts
03-Sep-14 16:01 -17.527881 134.838207 326 32140ft 607kts
03-Sep-14 16:02 -17.396178 134.728068 326 32126ft 607kts
03-Sep-14 16:03 -17.264547 134.618262 326 32131ft 607kts
03-Sep-14 16:04 -17.132012 134.507904 326 32136ft 607kts
03-Sep-14 16:05 -17.000195 134.398350 326 32142ft 607kts
03-Sep-14 16:06 -16.868072 134.288744 326 32147ft 607kts
03-Sep-14 16:07 -16.735899 134.179297 326 32153ft 608kts
03-Sep-14 16:08 -16.603525 134.069884 326 32158ft 608kts
03-Sep-14 16:09 -16.471241 133.960743 326 32164ft 608kts
03-Sep-14 16:10 -16.339306 133.851837 326 32124ft 607kts
03-Sep-14 16:11 -16.206875 133.742884 326 32128ft 607kts
03-Sep-14 16:12 -16.074558 133.634293 326 32134ft 607kts
03-Sep-14 16:13 -15.941965 133.525667 326 32139ft 607kts
03-Sep-14 16:14 -15.809915 133.417672 326 32145ft 607kts
03-Sep-14 16:15 -15.677205 133.309322 326 32150ft 607kts
03-Sep-14 16:16 -15.544608 133.201248 326 32156ft 607kts
03-Sep-14 16:17 -15.411954 133.093305 326 32141ft 607kts
03-Sep-14 16:18 -15.279096 132.985381 326 32148ft 607kts
03-Sep-14 16:19 -15.168412 132.895602 326 32149ft 607kts
03-Sep-14 16:20 -15.013999 132.770271 326 32131ft 606kts
03-Sep-14 16:21 -14.903549 132.680972 326 32136ft 606kts
03-Sep-14 16:22 -14.748452 132.555783 326 32142ft 606kts
03-Sep-14 16:23 -14.638126 132.466874 326 32147ft 606kts
03-Sep-14 16:24 -14.508043 132.355164 313 32156ft 613kts
03-Sep-14 16:25 -14.402365 132.217187 309 32140ft 614kts
03-Sep-14 16:26 -14.297281 132.078941 309 32145ft 615kts
03-Sep-14 16:27 -14.191529 131.940047 309 32151ft 615kts
03-Sep-14 16:28 -14.086626 131.802182 309 32129ft 614kts
03-Sep-14 16:29 -13.980644 131.663420 309 32135ft 614kts
03-Sep-14 16:30 -13.875231 131.525663 309 32141ft 614kts
03-Sep-14 16:31 -13.769165 131.387281 309 32146ft 614kts
03-Sep-14 16:32 -13.663783 131.250015 309 32152ft 615kts
03-Sep-14 16:33 -13.558166 131.112502 309 32158ft 615kts
03-Sep-14 16:34 -13.452229 130.974710 309 32164ft 615kts
03-Sep-14 16:35 -13.347241 130.838109 309 32125ft 614kts
03-Sep-14 16:36 -13.241137 130.700461 309 32129ft 614kts
03-Sep-14 16:37 -13.135131 130.563227 309 32135ft 614kts
03-Sep-14 16:38 -13.029337 130.426480 309 32140ft 614kts
03-Sep-14 16:39 -12.922993 130.289232 309 32146ft 614kts
03-Sep-14 16:40 -12.816880 130.152490 309 32152ft 614kts
03-Sep-14 16:41 -12.710431 130.015522 309 32158ft 614kts
03-Sep-14 16:42 -12.604046 129.878806 310 32141ft 614kts
03-Sep-14 16:43 -12.497796 129.742227 310 32142ft 614kts
03-Sep-14 16:44 -12.391548 129.606117 310 32130ft 614kts
03-Sep-14 16:45 -12.284671 129.469410 310 32135ft 614kts
03-Sep-14 16:46 -12.178063 129.333239 310 32140ft 614kts
03-Sep-14 16:47 -12.071314 129.197083 310 32146ft 614kts
03-Sep-14 16:48 -11.964180 129.061212 310 32152ft 614kts
03-Sep-14 16:49 -11.857922 128.926662 310 32158ft 614kts
03-Sep-14 16:50 -11.750911 128.791075 310 32135ft 614kts
03-Sep-14 16:51 -11.643732 128.655715 310 32141ft 614kts
03-Sep-14 16:52 -11.536447 128.520424 310 32147ft 614kts
03-Sep-14 16:53 -11.429088 128.385219 310 32135ft 614kts
03-Sep-14 16:54 -11.321776 128.250252 310 32140ft 614kts
03-Sep-14 16:55 -11.214337 128.115303 310 32146ft 614kts
03-Sep-14 16:56 -11.107053 127.980724 310 32152ft 614kts
03-Sep-14 16:57 -10.999616 127.845939 311 32129ft 613kts
03-Sep-14 16:58 -10.891737 127.710888 311 32135ft 614kts
03-Sep-14 16:59 -10.784073 127.576352 311 32141ft 614kts
03-Sep-14 17:00 -10.676332 127.441888 311 32147ft 614kts
03-Sep-14 17:01 -10.568648 127.307663 311 32152ft 614kts
03-Sep-14 17:02 -10.461108 127.173781 311 32158ft 614kts
03-Sep-14 17:03 -10.371188 127.026174 297 32146ft 615kts
03-Sep-14 17:04 -10.289158 126.874401 297 32127ft 615kts
03-Sep-14 17:05 -10.206919 126.722222 298 32129ft 615kts
03-Sep-14 17:06 -10.124478 126.570143 298 32135ft 615kts
03-Sep-14 17:07 -10.041931 126.418080 298 32141ft 615kts
03-Sep-14 17:08 -9.959671 126.266749 298 32146ft 615kts
03-Sep-14 17:09 -9.877386 126.115173 295 32150ft 614kts
03-Sep-14 17:10 -9.803521 125.958812 293 32158ft 614kts
03-Sep-14 17:11 -9.729731 125.803231 294 32136ft 614kts
03-Sep-14 17:12 -9.655543 125.647314 294 32141ft 614kts
03-Sep-14 17:13 -9.581358 125.491666 294 32147ft 614kts
03-Sep-14 17:14 -9.507045 125.335962 294 32153ft 614kts
03-Sep-14 17:15 -9.433538 125.182146 294 32139ft 614kts
03-Sep-14 17:16 -9.359035 125.026454 294 32146ft 614kts
03-Sep-14 17:17 -9.284609 124.871077 294 32125ft 614kts
03-Sep-14 17:18 -9.209978 124.715283 294 32129ft 614kts
03-Sep-14 17:19 -9.135329 124.559907 294 32135ft 614kts
03-Sep-14 17:20 -9.060973 124.405346 294 32141ft 614kts
03-Sep-14 17:21 -8.986182 124.250079 294 32146ft 614kts
03-Sep-14 17:22 -8.911220 124.094655 294 32152ft 614kts
03-Sep-14 17:23 -8.836369 123.939658 294 32158ft 614kts
03-Sep-14 17:24 -8.761629 123.784802 294 32135ft 614kts
03-Sep-14 17:25 -8.686519 123.629635 294 32141ft 614kts
03-Sep-14 17:26 -8.611632 123.475143 294 32147ft 614kts
03-Sep-14 17:27 -8.536286 123.319894 294 32152ft 615kts
03-Sep-14 17:28 -8.473723 123.191126 294 32157ft 615kts
03-Sep-14 17:29 -8.398389 123.036231 294 32145ft 614kts
03-Sep-14 17:30 -8.323190 122.881790 294 32134ft 614kts
03-Sep-14 17:31 -8.247727 122.726748 294 32128ft 615kts
03-Sep-14 17:32 -8.172524 122.572672 294 32134ft 615kts
03-Sep-14 17:33 -8.096923 122.417964 294 32140ft 615kts
03-Sep-14 17:34 -8.021484 122.263762 294 32145ft 615kts
03-Sep-14 17:35 -7.945564 122.108753 294 32151ft 615kts
03-Sep-14 17:36 -7.870026 121.954698 294 32157ft 615kts
03-Sep-14 17:37 -7.794358 121.800305 295 32134ft 614kts
03-Sep-14 17:38 -7.718572 121.646055 295 32140ft 615kts
03-Sep-14 17:39 -7.642931 121.492299 295 32145ft 615kts
03-Sep-14 17:40 -7.566991 121.338099 295 32151ft 615kts
03-Sep-14 17:41 -7.490887 121.183730 295 32157ft 615kts
03-Sep-14 17:42 -7.414741 121.029420 295 32146ft 614kts
03-Sep-14 17:43 -7.339407 120.876907 295 32128ft 615kts
03-Sep-14 17:44 -7.263286 120.722768 295 32128ft 615kts
03-Sep-14 17:45 -7.187053 120.568770 295 32134ft 615kts
03-Sep-14 17:46 -7.110994 120.415279 295 32139ft 615kts
03-Sep-14 17:47 -7.034521 120.261108 295 32145ft 615kts
03-Sep-14 17:48 -6.958264 120.107521 295 32151ft 615kts
03-Sep-14 17:49 -6.882118 119.954759 295 32157ft 615kts
03-Sep-14 17:50 -6.805486 119.801397 295 32134ft 615kts
03-Sep-14 17:51 -6.728775 119.648202 295 32139ft 615kts
03-Sep-14 17:52 -6.651703 119.494459 295 32145ft 615kts
03-Sep-14 17:53 -6.574841 119.341274 295 32151ft 615kts
03-Sep-14 17:54 -6.497863 119.187999 295 32157ft 615kts
03-Sep-14 17:55 -6.420675 119.034427 295 32145ft 615kts
03-Sep-14 17:56 -6.343912 118.881842 295 32133ft 615kts
03-Sep-14 17:57 -6.266793 118.728504 295 32128ft 615kts
03-Sep-14 17:58 -6.189522 118.575182 295 32133ft 615kts
03-Sep-14 17:59 -6.112421 118.422334 295 32139ft 615kts
03-Sep-14 18:00 -6.034947 118.268875 295 32145ft 615kts
03-Sep-14 18:01 -5.957494 118.115588 295 32151ft 615kts
03-Sep-14 18:02 -5.880476 117.963285 295 32157ft 615kts
03-Sep-14 18:03 -5.803007 117.810044 296 32134ft 615kts
03-Sep-14 18:04 -5.725686 117.657367 296 32139ft 615kts
03-Sep-14 18:05 -5.648110 117.504332 296 32145ft 615kts
03-Sep-14 18:06 -5.570709 117.351763 296 32151ft 615kts
03-Sep-14 18:07 -5.492950 117.198605 296 32157ft 615kts
03-Sep-14 18:08 -5.415598 117.046348 296 32146ft 615kts
03-Sep-14 18:09 -5.337895 116.893529 296 32147ft 615kts
03-Sep-14 18:10 -5.260249 116.740768 296 32128ft 615kts
03-Sep-14 18:11 -5.182488 116.588055 296 32133ft 615kts
03-Sep-14 18:12 -5.104949 116.435890 296 32139ft 615kts
03-Sep-14 18:13 -5.027027 116.283079 296 32145ft 615kts
03-Sep-14 18:14 -4.949301 116.130759 296 32151ft 615kts
03-Sep-14 18:15 -4.871391 115.978182 296 32157ft 615kts
03-Sep-14 18:16 -4.793700 115.825996 296 32134ft 615kts
03-Sep-14 18:17 -4.715696 115.673416 296 32139ft 615kts
03-Sep-14 18:18 -4.637657 115.520890 296 32145ft 615kts
03-Sep-14 18:19 -4.559836 115.368887 296 32150ft 615kts
03-Sep-14 18:20 -4.481806 115.216572 296 32156ft 615kts
03-Sep-14 18:21 -4.403925 115.064627 296 32145ft 615kts
03-Sep-14 18:22 -4.326368 114.912321 294 32151ft 615kts
03-Sep-14 18:23 -4.250882 114.758583 295 32127ft 615kts
03-Sep-14 18:24 -4.175224 114.604856 295 32133ft 615kts
03-Sep-14 18:25 -4.099600 114.451290 295 32139ft 615kts
03-Sep-14 18:26 -4.024378 114.298629 295 32144ft 615kts
03-Sep-14 18:27 -3.948702 114.145133 295 32150ft 615kts
03-Sep-14 18:28 -3.872985 113.991637 295 32156ft 615kts
03-Sep-14 18:29 -3.797166 113.837915 295 32133ft 614kts
03-Sep-14 18:30 -3.721734 113.685135 295 32138ft 615kts
03-Sep-14 18:31 -3.645738 113.531322 295 32144ft 615kts
03-Sep-14 18:32 -3.570155 113.378424 295 32150ft 615kts
03-Sep-14 18:33 -3.494389 113.225232 295 32156ft 615kts
03-Sep-14 18:34 -3.418728 113.072310 295 32145ft 615kts
03-Sep-14 18:35 -3.342788 112.918913 295 32150ft 615kts
03-Sep-14 18:36 -3.266902 112.765593 295 32127ft 615kts
03-Sep-14 18:37 -3.191219 112.612851 295 32132ft 615kts
03-Sep-14 18:38 -3.115391 112.459887 295 32138ft 615kts
03-Sep-14 18:39 -3.039382 112.306688 295 32144ft 615kts
03-Sep-14 18:40 -2.961480 112.154563 296 32150ft 615kts
03-Sep-14 18:41 -2.883604 112.002556 296 32156ft 615kts
03-Sep-14 18:42 -2.818650 111.875804 296 32136ft 615kts
03-Sep-14 18:43 -2.740534 111.723357 296 32137ft 615kts
03-Sep-14 18:44 -2.649630 111.579221 304 32143ft 615kts
03-Sep-14 18:45 -2.555841 111.436725 304 32148ft 615kts
03-Sep-14 18:46 -2.461743 111.293838 304 32154ft 615kts
03-Sep-14 18:47 -2.352369 111.127802 304 32144ft 615kts
03-Sep-14 18:48 -2.273800 111.008565 304 32149ft 615kts
03-Sep-14 18:49 -2.181166 110.867951 304 32124ft 614kts
03-Sep-14 18:50 -2.087587 110.725898 304 32131ft 615kts
03-Sep-14 18:51 -1.993707 110.583461 304 32137ft 615kts
03-Sep-14 18:52 -1.899557 110.440651 304 32142ft 615kts
03-Sep-14 18:53 -1.805479 110.297982 304 32148ft 615kts
03-Sep-14 18:54 -1.711306 110.155200 304 32154ft 615kts
03-Sep-14 18:55 -1.617371 110.012768 304 32160ft 615kts
03-Sep-14 18:56 -1.523608 109.870593 304 32136ft 615kts
03-Sep-14 18:57 -1.429821 109.728388 304 32124ft 615kts
03-Sep-14 18:58 -1.335707 109.585752 304 32131ft 615kts
03-Sep-14 18:59 -1.241482 109.442964 304 32137ft 615kts
03-Sep-14 19:00 -1.147690 109.300854 304 32142ft 615kts
03-Sep-14 19:01 -1.053520 109.158190 304 32148ft 615kts
03-Sep-14 19:02 -0.960017 109.016158 304 32154ft 615kts
03-Sep-14 19:03 -0.866014 108.873040 304 32132ft 615kts
03-Sep-14 19:04 -0.772732 108.730379 304 32136ft 615kts
03-Sep-14 19:05 -0.679394 108.587679 304 32142ft 615kts
03-Sep-14 19:06 -0.585445 108.444621 304 32148ft 615kts
03-Sep-14 19:07 -0.491542 108.302226 304 32153ft 615kts
03-Sep-14 19:08 -0.397971 108.160333 304 32143ft 615kts
03-Sep-14 19:09 -0.303775 108.017505 304 32148ft 615kts
03-Sep-14 19:10 -0.209997 107.875312 304 32127ft 615kts
03-Sep-14 19:11 -0.116013 107.732819 304 32130ft 615kts
03-Sep-14 19:12 -0.021424 107.590601 304 32136ft 615kts
03-Sep-14 19:13 0.073068 107.448572 304 32142ft 615kts
03-Sep-14 19:14 0.167598 107.306482 304 32148ft 615kts
03-Sep-14 19:15 0.261946 107.164664 304 32153ft 615kts
03-Sep-14 19:16 0.356608 107.022369 304 32159ft 615kts
03-Sep-14 19:17 0.433872 106.871624 280 32143ft 610kts
03-Sep-14 19:18 0.463039 106.705859 276 32141ft 607kts
03-Sep-14 19:19 0.496149 106.540262 276 32146ft 607kts
03-Sep-14 19:20 0.529298 106.375576 276 32152ft 607kts
03-Sep-14 19:21 0.562317 106.211507 276 32140ft 607kts
03-Sep-14 19:22 0.595575 106.046248 276 32146ft 607kts
03-Sep-14 19:23 0.628792 105.881160 276 32134ft 607kts
03-Sep-14 19:24 0.662138 105.715476 276 32127ft 607kts
03-Sep-14 19:25 0.695405 105.550083 276 32132ft 607kts
03-Sep-14 19:26 0.728528 105.385374 276 32138ft 607kts
03-Sep-14 19:27 0.761833 105.219725 276 32143ft 607kts
03-Sep-14 19:28 0.795060 105.054428 276 32149ft 607kts
03-Sep-14 19:29 0.828159 104.889731 276 32147ft 607kts
03-Sep-14 19:30 0.861486 104.723938 276 32130ft 607kts
03-Sep-14 19:31 0.894731 104.558640 277 32134ft 608kts
03-Sep-14 19:32 0.958087 104.401791 294 32141ft 615kts
03-Sep-14 19:33 1.032376 104.248072 294 32147ft 615kts
03-Sep-14 19:34 1.106652 104.094396 294 32153ft 615kts
03-Sep-14 19:35 1.181056 103.940431 294 32159ft 615kts
03-Sep-14 19:36 1.275379 103.800189 320 32140ft 608kts
03-Sep-14 19:37 1.394587 103.680858 318 32140ft 609kts
03-Sep-14 19:38 1.513406 103.560949 318 32146ft 609kts
03-Sep-14 19:39 1.632599 103.440624 318 32135ft 609kts
03-Sep-14 19:40 1.751460 103.320611 318 32140ft 609kts
03-Sep-14 19:41 1.870537 103.200357 318 32146ft 609kts
03-Sep-14 19:42 1.989415 103.080279 318 32151ft 609kts
03-Sep-14 19:43 2.108406 102.960060 318 32157ft 609kts
03-Sep-14 19:44 2.227214 102.840030 318 32134ft 609kts
03-Sep-14 19:45 2.346307 102.719667 318 32138ft 609kts
03-Sep-14 19:46 2.465238 102.599423 318 32144ft 609kts
03-Sep-14 19:47 2.576397 102.471996 308 32136ft 614kts
03-Sep-14 19:48 2.677569 102.335100 308 32139ft 614kts
03-Sep-14 19:49 2.778034 102.198904 308 32144ft 614kts
03-Sep-14 19:50 2.879055 102.061908 308 32150ft 614kts
03-Sep-14 19:51 2.980259 101.924617 308 32156ft 614kts
03-Sep-14 19:52 3.081375 101.787469 308 32132ft 614kts
03-Sep-14 19:53 3.182454 101.650255 308 32137ft 614kts
03-Sep-14 19:54 3.283827 101.512586 308 32143ft 614kts
03-Sep-14 19:55 3.377450 101.370270 302 32149ft 615kts
03-Sep-14 19:56 3.451277 101.248824 302 32154ft 615kts
03-Sep-14 19:57 3.554697 101.078562 301 32158ft 615kts
03-Sep-14 19:58 3.643950 100.932085 302 32150ft 615kts
03-Sep-14 19:59 3.717641 100.811509 302 32126ft 615kts
03-Sep-14 20:00 3.806710 100.665608 302 32131ft 615kts
03-Sep-14 20:01 3.895638 100.519848 302 32137ft 615kts
03-Sep-14 20:02 3.984741 100.373728 302 32142ft 615kts
03-Sep-14 20:03 4.073641 100.227868 302 32148ft 615kts
03-Sep-14 20:04 4.162522 100.081963 302 32154ft 615kts
03-Sep-14 20:05 4.251708 99.935478 302 32160ft 615kts
03-Sep-14 20:06 4.340362 99.789900 302 32136ft 615kts
03-Sep-14 20:07 4.429344 99.643603 302 32142ft 615kts
03-Sep-14 20:08 4.523336 99.501776 314 32153ft 611kts
03-Sep-14 20:09 4.635082 99.372938 314 32137ft 611kts
03-Sep-14 20:10 4.746496 99.244690 314 32142ft 611kts
03-Sep-14 20:11 4.857961 99.116318 314 32148ft 611kts
03-Sep-14 20:12 4.969499 98.987792 314 32154ft 611kts
03-Sep-14 20:13 5.080695 98.859637 314 32127ft 611kts
03-Sep-14 20:14 5.192254 98.731007 314 32135ft 611kts
03-Sep-14 20:15 5.303533 98.602560 314 32141ft 611kts
03-Sep-14 20:16 5.414854 98.473986 314 32147ft 611kts
03-Sep-14 20:17 5.526116 98.345402 314 32152ft 611kts
03-Sep-14 20:18 5.637646 98.216423 314 32142ft 611kts
03-Sep-14 20:19 5.748823 98.087770 314 32147ft 611kts
03-Sep-14 20:20 5.859831 97.959230 314 32153ft 611kts
03-Sep-14 20:21 5.970943 97.830594 314 32130ft 611kts
03-Sep-14 20:22 6.082386 97.701408 314 32134ft 611kts
03-Sep-14 20:23 6.187959 97.567631 299 32142ft 615kts
03-Sep-14 20:24 6.237750 97.405493 279 32148ft 609kts
03-Sep-14 20:25 6.283742 97.241229 283 32151ft 612kts
03-Sep-14 20:26 6.331710 97.077963 283 32157ft 612kts
03-Sep-14 20:27 6.379895 96.913911 283 32163ft 612kts
03-Sep-14 20:28 6.427923 96.750500 283 32139ft 611kts
03-Sep-14 20:29 6.476001 96.586415 283 32144ft 612kts
03-Sep-14 20:30 6.535850 96.426369 295 32157ft 615kts
03-Sep-14 20:31 6.611311 96.272291 295 32139ft 615kts
03-Sep-14 20:32 6.686773 96.118386 295 32145ft 615kts
03-Sep-14 20:33 6.762324 95.964161 295 32151ft 615kts
03-Sep-14 20:34 6.837757 95.810317 295 32129ft 615kts
03-Sep-14 20:35 6.913316 95.655908 295 32133ft 615kts
03-Sep-14 20:36 6.988812 95.501434 295 32139ft 615kts
03-Sep-14 20:37 7.064078 95.347279 295 32145ft 615kts
03-Sep-14 20:38 7.139473 95.192704 295 32150ft 615kts
03-Sep-14 20:39 7.214661 95.038399 295 32156ft 615kts
03-Sep-14 20:40 7.289747 94.884151 295 32148ft 615kts
03-Sep-14 20:41 7.365106 94.729409 295 32138ft 615kts
03-Sep-14 20:42 7.440353 94.574507 295 32144ft 615kts
03-Sep-14 20:43 7.515237 94.420162 295 32149ft 615kts
03-Sep-14 20:44 7.585632 94.263621 293 32141ft 615kts
03-Sep-14 20:45 7.655961 94.106741 293 32145ft 615kts
03-Sep-14 20:46 7.726255 93.949764 293 32151ft 615kts
03-Sep-14 20:47 7.796571 93.792818 293 32127ft 615kts
03-Sep-14 20:48 7.866846 93.635555 293 32133ft 615kts
03-Sep-14 20:49 7.936441 93.479599 293 32139ft 615kts
03-Sep-14 20:50 8.006301 93.322862 293 32144ft 615kts
03-Sep-14 20:51 8.076287 93.165657 293 32150ft 615kts
03-Sep-14 20:52 8.146239 93.008338 293 32156ft 615kts
03-Sep-14 20:53 8.216114 92.851136 293 32128ft 614kts
03-Sep-14 20:54 8.285931 92.693899 293 32138ft 615kts
03-Sep-14 20:55 8.355909 92.535947 293 32144ft 615kts
03-Sep-14 20:56 8.425285 92.379152 293 32149ft 615kts
03-Sep-14 20:57 8.494950 92.221506 293 32155ft 615kts
03-Sep-14 20:58 8.564488 92.063940 293 32144ft 615kts
03-Sep-14 20:59 8.636302 91.907237 294 32151ft 615kts
03-Sep-14 21:00 8.710006 91.751140 294 32127ft 615kts
03-Sep-14 21:01 8.783307 91.595356 294 32133ft 615kts
03-Sep-14 21:02 8.856434 91.439730 294 32138ft 615kts
03-Sep-14 21:03 8.929652 91.283710 294 32144ft 615kts
03-Sep-14 21:04 9.002838 91.127558 294 32150ft 615kts
03-Sep-14 21:05 9.075967 90.971322 294 32156ft 615kts
03-Sep-14 21:06 9.148781 90.815812 294 32135ft 615kts
03-Sep-14 21:07 9.221811 90.659430 294 32138ft 615kts
03-Sep-14 21:08 9.294543 90.503397 294 32144ft 615kts
03-Sep-14 21:09 9.355216 90.373070 294 32149ft 615kts
03-Sep-14 21:10 9.440118 90.190453 294 32156ft 615kts
03-Sep-14 21:11 9.500814 90.059719 294 32160ft 615kts
03-Sep-14 21:12 9.573510 89.902924 294 32148ft 615kts
03-Sep-14 21:13 9.646191 89.746299 294 32127ft 615kts
03-Sep-14 21:14 9.718380 89.590183 294 32132ft 615kts
03-Sep-14 21:15 9.790830 89.433266 294 32138ft 615kts
03-Sep-14 21:16 9.863232 89.276231 294 32143ft 615kts
03-Sep-14 21:17 9.935499 89.119258 294 32149ft 615kts
03-Sep-14 21:18 10.007797 88.961989 294 32155ft 615kts
03-Sep-14 21:19 10.080009 88.804985 293 32132ft 615kts
03-Sep-14 21:20 10.151937 88.648120 293 32136ft 615kts
03-Sep-14 21:21 10.225384 88.491350 297 32136ft 615kts
03-Sep-14 21:22 10.303345 88.337287 296 32147ft 615kts
03-Sep-14 21:23 10.381323 88.182608 296 32153ft 615kts
03-Sep-14 21:24 10.459223 88.027864 296 32159ft 615kts
03-Sep-14 21:25 10.536931 87.873339 296 32138ft 615kts
03-Sep-14 21:26 10.613975 87.720182 296 32125ft 615kts
03-Sep-14 21:27 10.691381 87.565769 296 32131ft 615kts
03-Sep-14 21:28 10.769041 87.410608 296 32137ft 615kts
03-Sep-14 21:29 10.846356 87.255909 296 32142ft 615kts
03-Sep-14 21:30 10.923935 87.100441 296 32148ft 615kts
03-Sep-14 21:31 10.994335 86.959152 296 32154ft 615kts
03-Sep-14 21:32 11.001382 86.944994 296 32090ft 616kts
03-Sep-14 21:33 11.058240 86.831452 296 32171ft 616kts
03-Sep-14 21:34 11.136360 86.674824 294 33965ft 620kts
03-Sep-14 21:35 11.213657 86.518631 293 34143ft 618kts
03-Sep-14 21:36 11.291200 86.362064 293 34150ft 618kts
03-Sep-14 21:37 11.368446 86.205866 293 34156ft 618kts
03-Sep-14 21:38 11.445317 86.050178 293 34162ft 618kts
03-Sep-14 21:39 11.522621 85.893361 293 34164ft 618kts
03-Sep-14 21:40 11.600318 85.735841 293 34126ft 627kts
03-Sep-14 21:41 11.678173 85.577406 293 34129ft 627kts
03-Sep-14 21:42 11.756168 85.418387 293 34136ft 627kts
03-Sep-14 21:43 11.833821 85.259798 293 34142ft 627kts
03-Sep-14 21:44 11.911549 85.100786 293 34148ft 627kts
03-Sep-14 21:45 11.989096 84.941870 293 34155ft 627kts
03-Sep-14 21:46 12.066853 84.782628 293 34132ft 626kts
03-Sep-14 21:47 12.144366 84.623267 293 34139ft 626kts
03-Sep-14 21:48 12.221534 84.464299 293 34145ft 626kts
03-Sep-14 21:49 12.298251 84.305978 293 34151ft 626kts
03-Sep-14 21:50 12.375293 84.146707 293 34158ft 626kts
03-Sep-14 21:51 12.452518 83.986767 293 34164ft 626kts
03-Sep-14 21:52 12.529616 83.827112 293 34143ft 626kts
03-Sep-14 21:53 12.606525 83.667367 292 34125ft 626kts
03-Sep-14 21:54 12.684019 83.507993 294 34132ft 627kts
03-Sep-14 21:55 12.763298 83.349258 294 34138ft 627kts
03-Sep-14 21:56 12.842376 83.190617 294 34144ft 627kts
03-Sep-14 21:57 12.921526 83.031538 294 34151ft 627kts
03-Sep-14 21:58 13.000516 82.872549 294 34131ft 627kts
03-Sep-14 21:59 13.079482 82.713629 293 34135ft 627kts
03-Sep-14 22:00 13.158608 82.553716 293 34141ft 627kts
03-Sep-14 22:01 13.237113 82.394748 293 34147ft 627kts
03-Sep-14 22:02 13.315545 82.235627 293 34154ft 627kts
03-Sep-14 22:03 13.394171 82.075807 293 34160ft 627kts
03-Sep-14 22:04 13.472685 81.915906 293 34166ft 627kts
03-Sep-14 22:05 13.550957 81.756623 293 34144ft 627kts
03-Sep-14 22:06 13.629135 81.596807 293 34128ft 627kts
03-Sep-14 22:07 13.707192 81.436896 293 34134ft 627kts
03-Sep-14 22:08 13.785086 81.277002 293 34140ft 627kts
03-Sep-14 22:09 13.863025 81.116697 293 34147ft 627kts
03-Sep-14 22:10 13.940857 80.956287 293 34153ft 627kts
03-Sep-14 22:11 14.018876 80.797029 294 34131ft 627kts
03-Sep-14 22:12 14.099281 80.637935 294 34137ft 627kts
03-Sep-14 22:13 14.179529 80.478662 294 34144ft 627kts
03-Sep-14 22:14 14.259530 80.319558 294 34150ft 627kts
03-Sep-14 22:15 14.339579 80.160034 294 34156ft 627kts
03-Sep-14 22:16 14.419333 80.000772 294 34163ft 627kts
03-Sep-14 22:17 14.499456 79.840733 294 34140ft 627kts
03-Sep-14 22:18 14.578930 79.681556 294 34123ft 627kts
03-Sep-14 22:19 14.658535 79.521612 294 34131ft 627kts
03-Sep-14 22:20 14.737802 79.361996 294 34137ft 627kts
03-Sep-14 22:21 14.817283 79.201609 294 34143ft 627kts
03-Sep-14 22:22 14.896405 79.041608 294 34150ft 627kts
03-Sep-14 22:23 14.975585 78.881168 294 34140ft 627kts
03-Sep-14 22:24 15.054782 78.720810 293 34134ft 627kts
03-Sep-14 22:25 15.120648 78.586784 293 34139ft 627kts
03-Sep-14 22:26 15.212473 78.399515 293 34147ft 627kts
03-Sep-14 22:27 15.277972 78.265642 293 34152ft 627kts
03-Sep-14 22:28 15.356651 78.104498 293 34158ft 627kts
03-Sep-14 22:29 15.434180 77.942932 293 34165ft 627kts
03-Sep-14 22:30 15.524391 77.754872 293 34144ft 626kts
03-Sep-14 22:31 15.588761 77.620032 293 34128ft 626kts
03-Sep-14 22:32 15.665607 77.458703 293 34133ft 626kts
03-Sep-14 22:33 15.742718 77.296946 293 34139ft 627kts
03-Sep-14 22:34 15.820332 77.134834 293 34145ft 627kts
03-Sep-14 22:35 15.897655 76.972953 293 34152ft 626kts
03-Sep-14 22:36 15.974862 76.811401 293 34132ft 626kts
03-Sep-14 22:37 16.052161 76.648921 293 34136ft 626kts
03-Sep-14 22:38 16.128825 76.487291 293 34142ft 626kts
03-Sep-14 22:39 16.205736 76.324754 293 34149ft 626kts
03-Sep-14 22:40 16.282256 76.162659 293 34155ft 626kts
03-Sep-14 22:41 16.359072 75.999528 292 34161ft 626kts
03-Sep-14 22:42 16.434876 75.836795 292 34139ft 626kts
03-Sep-14 22:43 16.510420 75.674050 292 34146ft 626kts
03-Sep-14 22:44 16.585677 75.511305 292 34131ft 626kts
03-Sep-14 22:45 16.665425 75.349260 295 34136ft 627kts
03-Sep-14 22:46 16.740867 75.186086 291 34143ft 626kts
03-Sep-14 22:47 16.816165 75.022532 292 34148ft 626kts
03-Sep-14 22:48 16.892451 74.858608 289 36059ft 625kts
03-Sep-14 22:49 16.967289 74.696417 289 36133ft 622kts
03-Sep-14 22:50 17.041883 74.534540 289 36139ft 622kts
03-Sep-14 22:51 17.116997 74.371137 289 36146ft 622kts
03-Sep-14 22:52 17.191562 74.208513 289 36152ft 622kts
03-Sep-14 22:53 17.266227 74.045255 289 36158ft 622kts
03-Sep-14 22:54 17.340572 73.882306 289 36151ft 622kts
03-Sep-14 22:55 17.415105 73.719070 288 36145ft 622kts
03-Sep-14 22:56 17.489067 73.556106 288 36152ft 622kts
03-Sep-14 22:57 17.563138 73.392459 288 36132ft 622kts
03-Sep-14 22:58 17.636909 73.229037 288 36135ft 622kts
03-Sep-14 22:59 17.710835 73.064840 288 36142ft 622kts
03-Sep-14 23:00 17.784353 72.901112 288 36148ft 622kts
03-Sep-14 23:01 17.858003 72.737284 288 36129ft 621kts
03-Sep-14 23:02 17.931186 72.573455 288 36135ft 621kts
03-Sep-14 23:03 18.004169 72.409607 288 36141ft 621kts
03-Sep-14 23:04 18.077287 72.245006 288 36148ft 621kts
03-Sep-14 23:05 18.150257 72.080287 288 36154ft 621kts
03-Sep-14 23:06 18.222786 71.916110 288 36160ft 621kts
03-Sep-14 23:07 18.295510 71.751668 288 36141ft 621kts
03-Sep-14 23:08 18.367847 71.587062 288 36147ft 621kts
03-Sep-14 23:09 18.440214 71.421885 288 36154ft 621kts
03-Sep-14 23:10 18.512341 71.256787 288 36160ft 621kts
03-Sep-14 23:11 18.584057 71.092158 288 36139ft 620kts
03-Sep-14 23:12 18.655884 70.926807 288 36144ft 621kts
03-Sep-14 23:13 18.727334 70.762513 287 36125ft 620kts
03-Sep-14 23:14 18.798644 70.597473 287 36131ft 620kts
03-Sep-14 23:15 18.869974 70.431852 287 36137ft 620kts
03-Sep-14 23:16 18.941224 70.265933 287 36143ft 620kts
03-Sep-14 23:17 19.012354 70.099810 287 36149ft 620kts
03-Sep-14 23:18 19.083071 69.934166 287 36156ft 620kts
03-Sep-14 23:19 19.154011 69.768164 287 36137ft 620kts
03-Sep-14 23:20 19.224499 69.602143 287 36143ft 620kts
03-Sep-14 23:21 19.294750 69.436122 287 36149ft 620kts
03-Sep-14 23:22 19.365105 69.269354 287 36155ft 620kts
03-Sep-14 23:23 19.435058 69.103036 287 36162ft 619kts
03-Sep-14 23:24 19.505081 68.936045 287 36168ft 619kts
03-Sep-14 23:25 19.575049 68.769348 286 36119ft 618kts
03-Sep-14 23:26 19.644378 68.603072 286 36126ft 619kts
03-Sep-14 23:27 19.713639 68.436375 286 36132ft 619kts
03-Sep-14 23:28 19.783009 68.268892 286 36138ft 619kts
03-Sep-14 23:29 19.852016 68.101767 286 36145ft 619kts
03-Sep-14 23:30 19.920859 67.934516 286 36151ft 619kts
03-Sep-14 23:31 19.989883 67.767007 286 36132ft 618kts
03-Sep-14 23:32 20.058244 67.599952 286 36138ft 618kts
03-Sep-14 23:33 20.126627 67.432238 286 36144ft 618kts
03-Sep-14 23:34 20.194904 67.264248 286 36151ft 618kts
03-Sep-14 23:35 20.251548 67.124471 286 36156ft 618kts
03-Sep-14 23:36 20.330704 66.928506 286 36163ft 618kts
03-Sep-14 23:37 20.387448 66.788247 285 36143ft 617kts
03-Sep-14 23:38 20.466056 66.592495 285 36150ft 618kts
03-Sep-14 23:39 20.522286 66.451924 285 36156ft 618kts
03-Sep-14 23:40 20.599868 66.257320 285 36133ft 617kts
03-Sep-14 23:41 20.655719 66.116775 285 36138ft 617kts
03-Sep-14 23:42 20.722556 65.948063 285 36145ft 617kts
03-Sep-14 23:43 20.789643 65.778889 285 36126ft 617kts
03-Sep-14 23:44 20.855942 65.610516 285 36132ft 617kts
03-Sep-14 23:45 20.922210 65.441550 285 36138ft 617kts
03-Sep-14 23:46 20.988392 65.272226 285 36144ft 617kts
03-Sep-14 23:47 21.054224 65.103220 285 36150ft 617kts
03-Sep-14 23:48 21.120145 64.933404 285 36157ft 617kts
03-Sep-14 23:49 21.185544 64.765131 284 36138ft 616kts
03-Sep-14 23:50 21.250858 64.595799 284 36144ft 616kts
03-Sep-14 23:51 21.315843 64.426653 284 36150ft 616kts
03-Sep-14 23:52 21.380899 64.256727 284 36156ft 616kts
03-Sep-14 23:53 21.445805 64.086593 284 36162ft 616kts
03-Sep-14 23:54 21.510543 63.916297 284 36168ft 616kts
03-Sep-14 23:55 21.575341 63.746063 284 36121ft 615kts
03-Sep-14 23:56 21.639280 63.576725 284 36126ft 615kts
03-Sep-14 23:57 21.703444 63.406121 284 36132ft 615kts
03-Sep-14 23:58 21.767310 63.235690 284 36139ft 615kts
03-Sep-14 23:59 21.831140 63.064739 284 36145ft 615kts
04-Sep-14 00:00 21.894617 62.894111 283 36148ft 615kts
04-Sep-14 00:01 21.958254 62.723312 283 36133ft 615kts
04-Sep-14 00:02 22.021198 62.552910 283 36138ft 615kts
04-Sep-14 00:03 22.084255 62.381529 283 36144ft 614kts
04-Sep-14 00:04 22.147137 62.209985 283 36150ft 614kts
04-Sep-14 00:05 22.209624 62.038879 283 36156ft 614kts
04-Sep-14 00:06 22.272066 61.867428 283 36139ft 614kts
04-Sep-14 00:07 22.334456 61.696047 283 36144ft 614kts
04-Sep-14 00:08 22.396317 61.524750 283 36150ft 614kts
04-Sep-14 00:09 22.458124 61.352925 283 36156ft 614kts
04-Sep-14 00:10 22.519742 61.180964 283 36162ft 614kts
04-Sep-14 00:11 22.581169 61.008854 283 36140ft 613kts
04-Sep-14 00:12 22.642165 60.837894 282 36119ft 613kts
04-Sep-14 00:13 22.703193 60.665993 282 36126ft 613kts
04-Sep-14 00:14 22.763934 60.493839 282 36132ft 613kts
04-Sep-14 00:15 22.824561 60.321317 282 36138ft 613kts
04-Sep-14 00:16 22.885040 60.148532 282 36144ft 613kts
04-Sep-14 00:17 22.945129 59.976177 282 36150ft 613kts
04-Sep-14 00:18 23.005454 59.803254 282 36133ft 612kts
04-Sep-14 00:19 23.065343 59.630308 282 36138ft 612kts
04-Sep-14 00:20 23.124749 59.457856 282 36144ft 612kts
04-Sep-14 00:21 23.184171 59.284648 282 36150ft 612kts
04-Sep-14 00:22 23.243440 59.111181 282 36156ft 612kts
04-Sep-14 00:23 23.302459 58.937734 282 36162ft 612kts
04-Sep-14 00:24 23.361524 58.764369 281 36144ft 611kts
04-Sep-14 00:25 23.420114 58.590865 281 36149ft 611kts
04-Sep-14 00:26 23.478319 58.417677 281 36155ft 611kts
04-Sep-14 00:27 23.536340 58.244311 281 36161ft 611kts
04-Sep-14 00:28 23.594287 58.070408 281 36137ft 611kts
04-Sep-14 00:29 23.652166 57.896007 280 36142ft 611kts
04-Sep-14 00:30 23.709914 57.722302 281 36125ft 610kts
04-Sep-14 00:31 23.767180 57.548311 280 36131ft 610kts
04-Sep-14 00:32 23.824189 57.374306 280 36137ft 610kts
04-Sep-14 00:33 23.881117 57.199797 280 36143ft 610kts
04-Sep-14 00:34 23.937887 57.025012 280 36148ft 610kts
04-Sep-14 00:35 23.994407 56.850709 280 36128ft 610kts
04-Sep-14 00:36 24.050790 56.676235 280 36136ft 609kts
04-Sep-14 00:37 24.106788 56.501571 280 36142ft 609kts
04-Sep-14 00:38 24.162593 56.326714 280 36148ft 609kts
04-Sep-14 00:39 24.218269 56.151484 280 36154ft 609kts
04-Sep-14 00:40 24.273610 55.976524 280 36160ft 609kts
04-Sep-14 00:41 24.328951 55.801685 279 36143ft 608kts
04-Sep-14 00:42 24.383978 55.626391 279 36148ft 608kts
04-Sep-14 00:43 24.438860 55.450521 279 36153ft 608kts
04-Sep-14 00:44 24.493259 55.275396 279 36159ft 608kts
04-Sep-14 00:45 24.547549 55.099816 279 36165ft 608kts
04-Sep-14 00:46 24.601586 54.924215 279 36141ft 608kts
04-Sep-14 00:47 24.650940 54.764242 279 36122ft 607kts
04-Sep-14 00:48 24.704731 54.588039 279 36128ft 607kts
04-Sep-14 00:49 24.748957 54.442435 279 36133ft 607kts
04-Sep-14 00:50 24.802145 54.266572 279 36138ft 607kts
04-Sep-14 00:51 24.855300 54.089981 279 36144ft 607kts
04-Sep-14 00:52 24.908012 53.914024 279 36150ft 607kts
04-Sep-14 00:53 24.960932 53.737698 278 36133ft 606kts
04-Sep-14 00:54 25.013413 53.560911 278 36138ft 606kts
04-Sep-14 00:55 25.065541 53.384377 278 36144ft 606kts
04-Sep-14 00:56 25.117352 53.208060 278 36149ft 606kts
04-Sep-14 00:57 25.154106 53.030262 264 36161ft 583kts
04-Sep-14 00:58 25.161301 52.889427 234 36165ft 511kts
04-Sep-14 00:59 25.077180 52.822987 154 36175ft 327kts
04-Sep-14 01:00 25.034483 52.900319 100 36029ft 292kts
04-Sep-14 01:01 25.080074 53.004560 99 36108ft 306kts
04-Sep-14 01:02 25.076048 53.091085 104 36104ft 292kts
04-Sep-14 01:03 25.080685 53.186180 94 28386ft 539kts
04-Sep-14 01:04 25.019768 53.324922 83 28792ft 433kts
04-Sep-14 01:05 25.054406 53.447900 56 26836ft 352kts
04-Sep-14 01:06 25.071508 53.597219 64 26832ft 395kts
04-Sep-14 01:07 25.103013 53.769525 66 25821ft 458kts
04-Sep-14 01:08 25.136294 53.951937 67 22309ft 413kts
04-Sep-14 01:09 25.164015 54.103172 69 19603ft 374kts
04-Sep-14 01:10 25.190419 54.247203 70 17116ft 356kts
04-Sep-14 01:11 25.213646 54.375950 72 15021ft 335kts
04-Sep-14 01:12 25.231235 54.473897 73 13496ft 317kts
04-Sep-14 01:13 25.247887 54.566971 74 12096ft 299kts
04-Sep-14 01:14 25.262958 54.651533 75 10835ft 269kts
04-Sep-14 01:15 25.276837 54.729598 76 9720ft 249kts
04-Sep-14 01:16 25.289966 54.803614 78 8597ft 244kts
04-Sep-14 01:17 25.302829 54.876590 78 7256ft 238kts
04-Sep-14 01:18 25.315386 54.947976 78 5842ft 235kts
04-Sep-14 01:19 25.327735 55.018301 78 4505ft 230kts
04-Sep-14 01:20 25.337637 55.074834 78 3435ft 227kts
04-Sep-14 01:21 25.349533 55.142089 79 2396ft 210kts
04-Sep-14 01:22 25.348045 55.190114 122 2160ft 202kts
04-Sep-14 01:23 25.319484 55.243293 121 2046ft 186kts
04-Sep-14 01:24 25.295918 55.286392 121 1374ft 157kts
04-Sep-14 01:25 25.273274 55.327478 121 705ft 156kts
04-Sep-14 01:26 25.251855 55.366180 121 92ft 138kts
04-Sep-14 01:27 25.244697 55.378019 215 51ft 5kts
04-Sep-14 01:28 25.244118 55.376547 292 50ft 3kts
04-Sep-14 01:29 25.243641 55.374638 207 50ft 9kts
04-Sep-14 01:30 25.243095 55.374299 210 51ft 0kts
04-Sep-14 01:31 25.243095 55.374299 210 51ft 0kts
04-Sep-14 01:32 25.243095 55.374299 210 51ft 0kts
04-Sep-14 01:33 25.243095 55.374299 210 51ft 0kts
04-Sep-14 01:34 25.243095 55.374299 210 51ft 0kts
04-Sep-14 01:35 25.243095 55.374299 210 51ft 0kts
04-Sep-14 01:36 25.243095 55.374299 210 51ft 0kts
04-Sep-14 01:37 25.243095 55.374299 210 51ft 0kts
04-Sep-14 01:38 25.243095 55.374299 210 51ft 0kts
04-Sep-14 01:39 25.243095 55.374299 210 51ft 0kts
04-Sep-14 01:40 25.243095 55.374299 210 51ft 0kts
04-Sep-14 01:41 25.264614 55.343069 121 422ft 149kts
04-Sep-14 01:42 25.258108 55.354861 121 246ft 147kts

Navigation Log

Ident Type
Flight plan parsing failed, navigation log unavailable